N211CX KTRM-KNFG
Flight info
| Callsign | N211CX |
|---|---|
| Flight time | 0h 40m |
| Altitude | 16000 |
| Route | MECCA1 PSP OCN |
| Aircraft | B737/M-VGDW/C |
Departure
| Time | 2026-04-21 02:18 |
|---|---|
| Airport | Jacqueline Cochran Regional Airport (KTRM) |
Arrival
| Time | 2026-04-21 02:58 |
|---|---|
| Airport | Camp Pendleton MCAS (Munn Field) Airport (KNFG) |
| Time | Latitude | Longitude | Altitude | Speed | Heading |
|---|---|---|---|---|---|
| 2026-04-21 01:35 | 33.63732 | -116.15854 | -91 ft | 0 kts | 272° |
| 2026-04-21 02:04 | 33.63756 | -116.15878 | -149 ft | 9 kts | 2° |
| 2026-04-21 02:04 | 33.63850 | -116.15823 | -142 ft | 17 kts | 27° |
| 2026-04-21 02:04 | 33.63903 | -116.15749 | -142 ft | 0 kts | 83° |
| 2026-04-21 02:17 | 33.63903 | -116.15748 | -140 ft | 2 kts | 83° |
| 2026-04-21 02:17 | 33.63899 | -116.15667 | -136 ft | 14 kts | 118° |
| 2026-04-21 02:17 | 33.63751 | -116.15642 | -134 ft | 48 kts | 180° |
| 2026-04-21 02:17 | 33.63120 | -116.15641 | -151 ft | 131 kts | 180° |
| 2026-04-21 02:18 | 33.61975 | -116.15641 | -60 ft | 191 kts | 180° |
| 2026-04-21 02:18 | 33.60582 | -116.15657 | 793 ft | 201 kts | 181° |
| 2026-04-21 02:18 | 33.59195 | -116.15320 | 1669 ft | 214 kts | 147° |
| 2026-04-21 02:18 | 33.58129 | -116.14136 | 2279 ft | 207 kts | 133° |
| 2026-04-21 02:19 | 33.57385 | -116.12664 | 2853 ft | 207 kts | 114° |
| 2026-04-21 02:19 | 33.56578 | -116.11294 | 3420 ft | 200 kts | 152° |
| 2026-04-21 02:19 | 33.55343 | -116.10583 | 4028 ft | 200 kts | 154° |
| 2026-04-21 02:19 | 33.54117 | -116.09723 | 4491 ft | 207 kts | 151° |
| 2026-04-21 02:20 | 33.52951 | -116.08668 | 4889 ft | 218 kts | 127° |
| 2026-04-21 02:20 | 33.52490 | -116.06933 | 5335 ft | 227 kts | 88° |
| 2026-04-21 02:20 | 33.53027 | -116.05135 | 5762 ft | 239 kts | 51° |
| 2026-04-21 02:20 | 33.54360 | -116.03944 | 6278 ft | 245 kts | 18° |
| 2026-04-21 02:21 | 33.56033 | -116.03761 | 6769 ft | 250 kts | 345° |
| 2026-04-21 02:21 | 33.57535 | -116.04771 | 7271 ft | 253 kts | 308° |
| 2026-04-21 02:21 | 33.58485 | -116.06566 | 7815 ft | 260 kts | 295° |
| 2026-04-21 02:21 | 33.59337 | -116.08569 | 8323 ft | 272 kts | 295° |
| 2026-04-21 02:22 | 33.60234 | -116.10591 | 8849 ft | 284 kts | 297° |
| 2026-04-21 02:22 | 33.61216 | -116.12695 | 9371 ft | 295 kts | 297° |
| 2026-04-21 02:22 | 33.62258 | -116.14874 | 9903 ft | 305 kts | 298° |
| 2026-04-21 02:22 | 33.63514 | -116.16933 | 10427 ft | 306 kts | 313° |
| 2026-04-21 02:23 | 33.65073 | -116.18691 | 11082 ft | 310 kts | 315° |
| 2026-04-21 02:23 | 33.66680 | -116.20433 | 11711 ft | 313 kts | 316° |
| 2026-04-21 02:23 | 33.68306 | -116.22194 | 12358 ft | 316 kts | 315° |
| 2026-04-21 02:23 | 33.69934 | -116.23971 | 13018 ft | 317 kts | 315° |
| 2026-04-21 02:24 | 33.71564 | -116.25765 | 13681 ft | 318 kts | 314° |
| 2026-04-21 02:24 | 33.73203 | -116.27579 | 14290 ft | 322 kts | 314° |
| 2026-04-21 02:24 | 33.74857 | -116.29417 | 14905 ft | 327 kts | 314° |
| 2026-04-21 02:24 | 33.76537 | -116.31289 | 15522 ft | 331 kts | 314° |
| 2026-04-21 02:25 | 33.78245 | -116.33194 | 15998 ft | 342 kts | 314° |
| 2026-04-21 02:25 | 33.80041 | -116.35202 | 15998 ft | 363 kts | 314° |
| 2026-04-21 02:25 | 33.81934 | -116.37319 | 16020 ft | 377 kts | 314° |
| 2026-04-21 02:25 | 33.83570 | -116.39762 | 15995 ft | 374 kts | 294° |
| 2026-04-21 02:26 | 33.84369 | -116.42693 | 16011 ft | 368 kts | 274° |
| 2026-04-21 02:26 | 33.84286 | -116.45729 | 16010 ft | 362 kts | 256° |
| 2026-04-21 02:26 | 33.83464 | -116.48565 | 15998 ft | 359 kts | 239° |
| 2026-04-21 02:26 | 33.82074 | -116.51044 | 16014 ft | 357 kts | 232° |
| 2026-04-21 02:27 | 33.80574 | -116.53423 | 16002 ft | 357 kts | 231° |
| 2026-04-21 02:27 | 33.79015 | -116.55827 | 16023 ft | 373 kts | 231° |
| 2026-04-21 02:27 | 33.77384 | -116.58338 | 16026 ft | 385 kts | 231° |
| 2026-04-21 02:27 | 33.75772 | -116.60841 | 16003 ft | 372 kts | 231° |
| 2026-04-21 02:28 | 33.74237 | -116.63243 | 15983 ft | 354 kts | 231° |
| 2026-04-21 02:28 | 33.72779 | -116.65537 | 15991 ft | 337 kts | 231° |
| 2026-04-21 02:28 | 33.71373 | -116.67752 | 16010 ft | 331 kts | 231° |
| 2026-04-21 02:28 | 33.69979 | -116.69951 | 16024 ft | 332 kts | 231° |
| 2026-04-21 02:29 | 33.68576 | -116.72164 | 16020 ft | 331 kts | 231° |
| 2026-04-21 02:29 | 33.67202 | -116.74333 | 16071 ft | 320 kts | 231° |
| 2026-04-21 02:29 | 33.65878 | -116.76423 | 16081 ft | 308 kts | 231° |
| 2026-04-21 02:29 | 33.64602 | -116.78435 | 16086 ft | 301 kts | 231° |
| 2026-04-21 02:30 | 33.63335 | -116.80430 | 16097 ft | 301 kts | 231° |
| 2026-04-21 02:30 | 33.62064 | -116.82430 | 16112 ft | 302 kts | 231° |
| 2026-04-21 02:30 | 33.60788 | -116.84438 | 16119 ft | 303 kts | 231° |
| 2026-04-21 02:30 | 33.59525 | -116.86424 | 16121 ft | 304 kts | 231° |
| 2026-04-21 02:31 | 33.58227 | -116.88464 | 16127 ft | 304 kts | 231° |
| 2026-04-21 02:31 | 33.56960 | -116.90454 | 16120 ft | 304 kts | 231° |
| 2026-04-21 02:31 | 33.55674 | -116.92476 | 16117 ft | 304 kts | 231° |
| 2026-04-21 02:31 | 33.54387 | -116.94497 | 16120 ft | 303 kts | 231° |
| 2026-04-21 02:32 | 33.53106 | -116.96506 | 16110 ft | 302 kts | 231° |
| 2026-04-21 02:32 | 33.51834 | -116.98502 | 16115 ft | 301 kts | 231° |
| 2026-04-21 02:33 | 33.48850 | -117.03178 | 16103 ft | 299 kts | 231° |
| 2026-04-21 02:33 | 33.47587 | -117.05153 | 16109 ft | 298 kts | 231° |
| 2026-04-21 02:33 | 33.46716 | -117.06546 | 16099 ft | 298 kts | 236° |
| 2026-04-21 02:34 | 33.46544 | -117.06877 | 16098 ft | 299 kts | 239° |
| 2026-04-21 02:35 | 33.45712 | -117.09160 | 16135 ft | 299 kts | 242° |
| 2026-04-21 02:35 | 33.44877 | -117.11507 | 15447 ft | 319 kts | 251° |
| 2026-04-21 02:35 | 33.44080 | -117.14003 | 14771 ft | 323 kts | 234° |
| 2026-04-21 02:35 | 33.42511 | -117.15925 | 14106 ft | 327 kts | 216° |
| 2026-04-21 02:36 | 33.40764 | -117.17691 | 13388 ft | 333 kts | 225° |
| 2026-04-21 02:36 | 33.39201 | -117.19759 | 12730 ft | 336 kts | 228° |
| 2026-04-21 02:36 | 33.37674 | -117.21889 | 12105 ft | 338 kts | 229° |
| 2026-04-21 02:36 | 33.36154 | -117.24036 | 11492 ft | 339 kts | 229° |
| 2026-04-21 02:37 | 33.34649 | -117.26174 | 10905 ft | 340 kts | 229° |
| 2026-04-21 02:37 | 33.33128 | -117.28345 | 10309 ft | 341 kts | 229° |
| 2026-04-21 02:37 | 33.31608 | -117.30527 | 9707 ft | 342 kts | 229° |
| 2026-04-21 02:37 | 33.30086 | -117.32720 | 9063 ft | 343 kts | 229° |
| 2026-04-21 02:38 | 33.28561 | -117.34912 | 8439 ft | 343 kts | 229° |
| 2026-04-21 02:38 | 33.27033 | -117.37101 | 7826 ft | 343 kts | 229° |
| 2026-04-21 02:38 | 33.25546 | -117.39327 | 7216 ft | 343 kts | 231° |
| 2026-04-21 02:38 | 33.24095 | -117.41583 | 6624 ft | 342 kts | 232° |
| 2026-04-21 02:39 | 33.22523 | -117.43690 | 5979 ft | 341 kts | 217° |
| 2026-04-21 02:39 | 33.20376 | -117.44816 | 5457 ft | 337 kts | 188° |
| 2026-04-21 02:39 | 33.18096 | -117.44591 | 5221 ft | 327 kts | 161° |
| 2026-04-21 02:39 | 33.16240 | -117.43147 | 5042 ft | 316 kts | 132° |
| 2026-04-21 02:40 | 33.15243 | -117.40910 | 5029 ft | 299 kts | 107° |
| 2026-04-21 02:40 | 33.14799 | -117.38580 | 4992 ft | 274 kts | 102° |
| 2026-04-21 02:40 | 33.14464 | -117.36445 | 4985 ft | 250 kts | 101° |
| 2026-04-21 02:40 | 33.14170 | -117.34488 | 4998 ft | 233 kts | 101° |
| 2026-04-21 02:41 | 33.14062 | -117.32565 | 4982 ft | 235 kts | 77° |
| 2026-04-21 02:41 | 33.14726 | -117.30828 | 5027 ft | 236 kts | 61° |
| 2026-04-21 02:41 | 33.15526 | -117.29116 | 5009 ft | 235 kts | 61° |
| 2026-04-21 02:41 | 33.16327 | -117.27407 | 4997 ft | 236 kts | 61° |
| 2026-04-21 02:42 | 33.17130 | -117.25698 | 5000 ft | 236 kts | 61° |
| 2026-04-21 02:42 | 33.17933 | -117.23992 | 5005 ft | 236 kts | 61° |
| 2026-04-21 02:42 | 33.18736 | -117.22288 | 5015 ft | 235 kts | 61° |
| 2026-04-21 02:42 | 33.19539 | -117.20589 | 5015 ft | 235 kts | 61° |
| 2026-04-21 02:43 | 33.20344 | -117.18886 | 5012 ft | 236 kts | 61° |
| 2026-04-21 02:43 | 33.21151 | -117.17181 | 5012 ft | 236 kts | 61° |
| 2026-04-21 02:43 | 33.22055 | -117.15548 | 4983 ft | 237 kts | 41° |
| 2026-04-21 02:43 | 33.23516 | -117.14804 | 5007 ft | 230 kts | 2° |
| 2026-04-21 02:44 | 33.25111 | -117.14825 | 5019 ft | 230 kts | 357° |
| 2026-04-21 02:44 | 33.26720 | -117.14874 | 5014 ft | 232 kts | 358° |
| 2026-04-21 02:44 | 33.28343 | -117.14903 | 5000 ft | 234 kts | 358° |
| 2026-04-21 02:44 | 33.29973 | -117.14911 | 5004 ft | 235 kts | 359° |
| 2026-04-21 02:45 | 33.31609 | -117.14904 | 4998 ft | 236 kts | 359° |
| 2026-04-21 02:45 | 33.33253 | -117.14884 | 4989 ft | 236 kts | 360° |
| 2026-04-21 02:45 | 33.34898 | -117.14855 | 4998 ft | 236 kts | 0° |
| 2026-04-21 02:45 | 33.36543 | -117.14821 | 4995 ft | 236 kts | 0° |
| 2026-04-21 02:46 | 33.38187 | -117.14784 | 4981 ft | 236 kts | 0° |
| 2026-04-21 02:46 | 33.39823 | -117.14744 | 4990 ft | 234 kts | 0° |
| 2026-04-21 02:46 | 33.41451 | -117.14702 | 4986 ft | 234 kts | 0° |
| 2026-04-21 02:46 | 33.43077 | -117.14660 | 4984 ft | 233 kts | 0° |
| 2026-04-21 02:47 | 33.44697 | -117.14616 | 4988 ft | 233 kts | 1° |
| 2026-04-21 02:47 | 33.46313 | -117.14573 | 4980 ft | 232 kts | 1° |
| 2026-04-21 02:47 | 33.47927 | -117.14529 | 4977 ft | 231 kts | 1° |
| 2026-04-21 02:47 | 33.49529 | -117.14485 | 4983 ft | 230 kts | 1° |
| 2026-04-21 02:48 | 33.51130 | -117.14449 | 4982 ft | 230 kts | 0° |
| 2026-04-21 02:48 | 33.52734 | -117.14419 | 4980 ft | 230 kts | 0° |
| 2026-04-21 02:48 | 33.54334 | -117.14389 | 4986 ft | 230 kts | 0° |
| 2026-04-21 02:48 | 33.55937 | -117.14359 | 4990 ft | 230 kts | 0° |
| 2026-04-21 02:49 | 33.57541 | -117.14328 | 4991 ft | 231 kts | 0° |
| 2026-04-21 02:49 | 33.59134 | -117.14168 | 4969 ft | 231 kts | 18° |
| 2026-04-21 02:49 | 33.60432 | -117.13144 | 4992 ft | 228 kts | 51° |
| 2026-04-21 02:49 | 33.61059 | -117.11428 | 4988 ft | 227 kts | 85° |
| 2026-04-21 02:50 | 33.60817 | -117.09593 | 4996 ft | 225 kts | 117° |
| 2026-04-21 02:50 | 33.59800 | -117.08203 | 5002 ft | 224 kts | 149° |
| 2026-04-21 02:50 | 33.58323 | -117.07677 | 4993 ft | 225 kts | 181° |
| 2026-04-21 02:50 | 33.57307 | -117.07902 | 4993 ft | 225 kts | 202° |
| 2026-04-21 02:51 | 33.55966 | -117.08865 | 4999 ft | 226 kts | 217° |
| 2026-04-21 02:51 | 33.54732 | -117.10047 | 4994 ft | 228 kts | 219° |
| 2026-04-21 02:51 | 33.53500 | -117.11249 | 4985 ft | 229 kts | 219° |
| 2026-04-21 02:51 | 33.52258 | -117.12449 | 4982 ft | 229 kts | 218° |
| 2026-04-21 02:52 | 33.51016 | -117.13639 | 4978 ft | 228 kts | 218° |
| 2026-04-21 02:52 | 33.49781 | -117.14828 | 4866 ft | 228 kts | 219° |
| 2026-04-21 02:52 | 33.48607 | -117.15992 | 4887 ft | 202 kts | 219° |
| 2026-04-21 02:52 | 33.47589 | -117.17005 | 4735 ft | 179 kts | 219° |
| 2026-04-21 02:53 | 33.46707 | -117.17881 | 4591 ft | 151 kts | 219° |
| 2026-04-21 02:53 | 33.45933 | -117.18648 | 4222 ft | 145 kts | 219° |
| 2026-04-21 02:53 | 33.45143 | -117.19429 | 3941 ft | 146 kts | 219° |
| 2026-04-21 02:53 | 33.44373 | -117.20192 | 3519 ft | 142 kts | 218° |
| 2026-04-21 02:54 | 33.43606 | -117.20949 | 3010 ft | 142 kts | 218° |
| 2026-04-21 02:54 | 33.42853 | -117.21693 | 2592 ft | 137 kts | 219° |
| 2026-04-21 02:54 | 33.42040 | -117.22487 | 2649 ft | 150 kts | 218° |
| 2026-04-21 02:54 | 33.41234 | -117.23264 | 2674 ft | 147 kts | 218° |
| 2026-04-21 02:55 | 33.40467 | -117.24001 | 2644 ft | 138 kts | 218° |
| 2026-04-21 02:55 | 33.39693 | -117.24745 | 2690 ft | 151 kts | 218° |
| 2026-04-21 02:55 | 33.38865 | -117.25540 | 2570 ft | 152 kts | 218° |
| 2026-04-21 02:55 | 33.38061 | -117.26329 | 2379 ft | 147 kts | 223° |
| 2026-04-21 02:56 | 33.37248 | -117.27259 | 2361 ft | 174 kts | 224° |
| 2026-04-21 02:56 | 33.35533 | -117.29249 | 1755 ft | 165 kts | 224° |
| 2026-04-21 02:56 | 33.34740 | -117.30169 | 1502 ft | 152 kts | 224° |
| 2026-04-21 02:57 | 33.33996 | -117.31031 | 1205 ft | 149 kts | 225° |
| 2026-04-21 02:57 | 33.33285 | -117.31856 | 993 ft | 133 kts | 224° |
| 2026-04-21 02:57 | 33.32612 | -117.32635 | 746 ft | 147 kts | 224° |
| 2026-04-21 02:57 | 33.31911 | -117.33440 | 550 ft | 137 kts | 223° |
| 2026-04-21 02:58 | 33.31232 | -117.34228 | 337 ft | 136 kts | 224° |
| 2026-04-21 02:58 | 33.30556 | -117.35013 | 102 ft | 133 kts | 224° |
| 2026-04-21 02:58 | 33.29966 | -117.35699 | 74 ft | 102 kts | 224° |
| 2026-04-21 02:58 | 33.29620 | -117.36099 | 65 ft | 43 kts | 224° |
| 2026-04-21 02:59 | 33.29520 | -117.36089 | 67 ft | 13 kts | 81° |
| 2026-04-21 02:59 | 33.29528 | -117.36033 | 65 ft | 0 kts | 82° |
| 2026-04-21 02:59 | 33.29528 | -117.36030 | 66 ft | 4 kts | 82° |
| 2026-04-21 02:59 | 33.29558 | -117.35932 | 69 ft | 19 kts | 62° |
| 2026-04-21 03:00 | 33.29664 | -117.35787 | 70 ft | 25 kts | 43° |
| 2026-04-21 03:00 | 33.29785 | -117.35651 | 69 ft | 23 kts | 43° |
| 2026-04-21 03:00 | 33.29882 | -117.35502 | 74 ft | 22 kts | 56° |
| 2026-04-21 03:00 | 33.29828 | -117.35390 | 76 ft | 16 kts | 133° |
| 2026-04-21 03:01 | 33.29809 | -117.35366 | 76 ft | 0 kts | 133° |